createdAt,value
2017-02-02T00:00:27.902Z,0
2017-02-02T00:01:27.952Z,0
2017-02-02T00:02:28.010Z,0
2017-02-02T00:03:27.689Z,0
2017-02-02T00:04:28.111Z,0
2017-02-02T00:05:28.187Z,0
2017-02-02T00:06:28.213Z,0
2017-02-02T00:07:28.269Z,0
2017-02-02T00:08:28.350Z,0
2017-02-02T00:09:28.415Z,0
2017-02-02T00:10:28.435Z,0
2017-02-02T00:11:28.512Z,0
2017-02-02T00:12:28.555Z,0
2017-02-02T00:13:28.241Z,0
2017-02-02T00:14:28.682Z,0
2017-02-02T00:15:28.716Z,0
2017-02-02T00:16:28.413Z,0
2017-02-02T00:17:28.843Z,0
2017-02-02T00:18:28.899Z,0
2017-02-02T00:19:28.995Z,0
2017-02-02T00:20:29.003Z,0
2017-02-02T00:21:29.072Z,0
2017-02-02T00:22:29.122Z,0
2017-02-02T00:23:29.178Z,0
2017-02-02T00:24:29.234Z,0
2017-02-02T00:25:29.287Z,0
2017-02-02T00:26:29.366Z,0
2017-02-02T00:27:29.396Z,0
2017-02-02T00:28:29.450Z,0
2017-02-02T00:29:29.514Z,0
2017-02-02T00:30:29.586Z,0
2017-02-02T00:31:29.625Z,0
2017-02-02T00:32:29.675Z,0
2017-02-02T00:33:29.727Z,0
2017-02-02T00:34:29.790Z,0
2017-02-02T00:35:29.836Z,0
2017-02-02T00:36:29.890Z,0
2017-02-02T00:37:29.957Z,0
2017-02-02T00:38:29.992Z,0
2017-02-02T00:39:30.065Z,0
2017-02-02T00:40:30.122Z,0
2017-02-02T00:41:30.171Z,0
2017-02-02T00:42:30.245Z,0
2017-02-02T00:43:30.294Z,0
2017-02-02T00:44:30.336Z,0
2017-02-02T00:45:30.386Z,0
2017-02-02T00:46:30.457Z,0
2017-02-02T00:47:30.507Z,0
2017-02-02T00:48:30.548Z,0
2017-02-02T00:49:30.604Z,0
2017-02-02T00:50:30.674Z,0
2017-02-02T00:51:30.720Z,0
2017-02-02T00:52:30.798Z,0
2017-02-02T00:53:30.834Z,0
2017-02-02T00:54:30.905Z,0
2017-02-02T00:55:30.968Z,0
2017-02-02T00:56:31.007Z,0
2017-02-02T00:57:30.682Z,0
2017-02-02T00:58:30.724Z,0
2017-02-02T00:59:30.780Z,0
2017-02-02T01:00:30.840Z,0
2017-02-02T01:01:31.268Z,0
2017-02-02T01:02:30.957Z,0
2017-02-02T01:03:31.401Z,0
2017-02-02T01:04:31.445Z,0
2017-02-02T01:05:31.513Z,0
2017-02-02T01:06:31.577Z,0
2017-02-02T01:07:31.612Z,0
2017-02-02T01:08:31.657Z,0
2017-02-02T01:09:31.735Z,0
2017-02-02T01:10:31.782Z,0
2017-02-02T01:11:31.844Z,0
2017-02-02T01:12:31.896Z,0
2017-02-02T01:13:31.953Z,0
2017-02-02T01:14:31.999Z,0
2017-02-02T01:15:32.074Z,0
2017-02-02T01:16:32.132Z,0
2017-02-02T01:17:32.172Z,0
2017-02-02T01:18:32.230Z,0
2017-02-02T01:19:32.280Z,0
2017-02-02T01:20:32.331Z,0
2017-02-02T01:21:32.414Z,0
2017-02-02T01:22:32.450Z,0
2017-02-02T01:23:32.517Z,0
2017-02-02T01:24:32.574Z,0
2017-02-02T01:25:32.631Z,0
2017-02-02T01:26:32.673Z,0
2017-02-02T01:27:32.719Z,0
2017-02-02T01:28:32.786Z,0
2017-02-02T01:29:32.831Z,0
2017-02-02T01:30:32.510Z,0
2017-02-02T01:31:32.941Z,0
2017-02-02T01:32:32.984Z,0
2017-02-02T01:33:33.041Z,0
2017-02-02T01:34:33.118Z,0
2017-02-02T01:35:33.180Z,0
2017-02-02T01:36:33.219Z,0
2017-02-02T01:37:33.274Z,0
2017-02-02T01:38:33.348Z,0
2017-02-02T01:39:33.398Z,0
2017-02-02T01:40:33.447Z,0
2017-02-02T01:41:33.511Z,0
2017-02-02T01:42:33.167Z,0
2017-02-02T01:43:33.611Z,0
2017-02-02T01:44:33.671Z,0
2017-02-02T01:45:33.734Z,0
2017-02-02T01:46:33.778Z,0
2017-02-02T01:47:33.843Z,0
2017-02-02T01:48:33.882Z,0
2017-02-02T01:49:33.947Z,0
2017-02-02T01:50:33.984Z,0
2017-02-02T01:51:34.050Z,0
2017-02-02T01:52:33.717Z,0
2017-02-02T01:53:34.150Z,0
2017-02-02T01:54:34.209Z,0
2017-02-02T01:55:34.266Z,0
2017-02-02T01:56:34.329Z,0
2017-02-02T01:57:34.377Z,0
2017-02-02T01:58:34.421Z,0
2017-02-02T01:59:34.487Z,0
2017-02-02T02:00:34.550Z,0
2017-02-02T02:01:34.598Z,0
2017-02-02T02:02:34.651Z,0
2017-02-02T02:03:34.716Z,0
2017-02-02T02:04:34.752Z,0
2017-02-02T02:05:34.836Z,0
2017-02-02T02:06:34.869Z,0
2017-02-02T02:07:34.936Z,0
2017-02-02T02:08:34.983Z,0
2017-02-02T02:09:35.038Z,0
2017-02-02T02:10:35.102Z,0
2017-02-02T02:11:35.166Z,0
2017-02-02T02:12:35.213Z,0
2017-02-02T02:13:35.264Z,0
2017-02-02T02:14:35.322Z,0
2017-02-02T02:15:34.976Z,0
2017-02-02T02:16:35.416Z,0
2017-02-02T02:17:35.482Z,0
2017-02-02T02:18:35.542Z,0
2017-02-02T02:19:35.586Z,0
2017-02-02T02:20:35.654Z,0
2017-02-02T02:21:35.720Z,0
2017-02-02T02:22:35.773Z,0
2017-02-02T02:23:35.843Z,0
2017-02-02T02:24:35.872Z,0
2017-02-02T02:25:35.922Z,0
2017-02-02T02:26:35.977Z,0
2017-02-02T02:27:36.033Z,0
2017-02-02T02:28:36.082Z,0
2017-02-02T02:29:36.145Z,0
2017-02-02T02:30:36.207Z,0
2017-02-02T02:31:36.258Z,0
2017-02-02T02:32:36.304Z,0
2017-02-02T02:33:36.382Z,0
2017-02-02T02:34:36.421Z,0
2017-02-02T02:35:36.484Z,0
2017-02-02T02:36:36.550Z,0
2017-02-02T02:37:36.592Z,0
2017-02-02T02:38:36.638Z,0
2017-02-02T02:39:36.703Z,0
2017-02-02T02:40:36.759Z,0
2017-02-02T02:41:36.804Z,0
2017-02-02T02:42:36.881Z,0
2017-02-02T02:43:36.921Z,0
2017-02-02T02:44:36.984Z,0
2017-02-02T02:45:37.024Z,0
2017-02-02T02:46:37.085Z,0
2017-02-02T02:47:37.148Z,0
2017-02-02T02:48:37.194Z,0
2017-02-02T02:49:37.251Z,0
2017-02-02T02:50:37.319Z,0
2017-02-02T02:51:37.360Z,0
2017-02-02T02:52:37.434Z,0
2017-02-02T02:53:37.474Z,0
2017-02-02T02:54:37.539Z,0
2017-02-02T02:55:37.585Z,0
2017-02-02T02:56:37.650Z,0
2017-02-02T02:57:37.316Z,0
2017-02-02T02:58:37.750Z,0
2017-02-02T02:59:37.817Z,0
2017-02-02T03:00:37.493Z,0
2017-02-02T03:01:37.906Z,0
2017-02-02T03:02:37.961Z,0
2017-02-02T03:03:38.023Z,0
2017-02-02T03:04:38.077Z,0
2017-02-02T03:05:38.142Z,0
2017-02-02T03:06:38.205Z,0
2017-02-02T03:07:38.268Z,0
2017-02-02T03:08:38.306Z,0
2017-02-02T03:09:38.362Z,0
2017-02-02T03:10:38.434Z,0
2017-02-02T03:11:38.480Z,0
2017-02-02T03:12:38.520Z,0
2017-02-02T03:13:38.586Z,0
2017-02-02T03:14:38.648Z,0
2017-02-02T03:15:38.715Z,0
2017-02-02T03:16:38.737Z,0
2017-02-02T03:17:38.803Z,0
2017-02-02T03:18:38.861Z,0
2017-02-02T03:19:38.970Z,0
2017-02-02T03:20:38.984Z,0
2017-02-02T03:21:39.022Z,0
2017-02-02T03:22:39.099Z,0
2017-02-02T03:23:39.149Z,0
2017-02-02T03:24:39.199Z,0
2017-02-02T03:25:39.260Z,0
2017-02-02T03:26:39.300Z,0
2017-02-02T03:27:39.366Z,0
2017-02-02T03:28:39.414Z,0
2017-02-02T03:29:39.467Z,0
2017-02-02T03:30:39.513Z,0
2017-02-02T03:31:39.589Z,0
2017-02-02T03:32:39.643Z,0
2017-02-02T03:33:39.675Z,0
2017-02-02T03:34:39.751Z,0
2017-02-02T03:35:39.813Z,0
2017-02-02T03:36:39.841Z,0
2017-02-02T03:37:39.921Z,0
2017-02-02T03:38:39.977Z,0
2017-02-02T03:39:40.023Z,0
2017-02-02T03:40:40.085Z,0
2017-02-02T03:41:40.119Z,0
2017-02-02T03:42:40.184Z,0
2017-02-02T03:43:40.256Z,0
2017-02-02T03:44:40.299Z,0
2017-02-02T03:45:40.364Z,0
2017-02-02T03:46:40.407Z,0
2017-02-02T03:47:40.468Z,0
2017-02-02T03:48:40.534Z,0
2017-02-02T03:49:40.580Z,0
2017-02-02T03:50:40.623Z,0
2017-02-02T03:51:40.693Z,0
2017-02-02T03:52:40.736Z,0
2017-02-02T03:53:40.793Z,0
2017-02-02T03:54:40.858Z,0
2017-02-02T03:55:40.897Z,0
2017-02-02T03:56:40.956Z,0
2017-02-02T03:57:41.012Z,0
2017-02-02T03:58:41.055Z,0
2017-02-02T03:59:41.127Z,0
2017-02-02T04:00:41.190Z,0
2017-02-02T04:01:41.244Z,0
2017-02-02T04:02:41.286Z,0
2017-02-02T04:03:41.352Z,0
2017-02-02T04:04:41.390Z,0
2017-02-02T04:05:41.461Z,0
2017-02-02T04:06:41.516Z,0
2017-02-02T04:07:41.580Z,0
2017-02-02T04:08:41.629Z,0
2017-02-02T04:09:41.661Z,0
2017-02-02T04:10:41.727Z,0
2017-02-02T04:11:41.796Z,0
2017-02-02T04:12:41.830Z,0
2017-02-02T04:13:41.901Z,0
2017-02-02T04:14:41.966Z,0
2017-02-02T04:15:41.996Z,0
2017-02-02T04:16:42.071Z,0
2017-02-02T04:17:42.115Z,0
2017-02-02T04:18:42.169Z,0
2017-02-02T04:19:42.236Z,0
2017-02-02T04:20:42.288Z,0
2017-02-02T04:21:42.349Z,0
2017-02-02T04:22:42.402Z,0
2017-02-02T04:23:42.441Z,0
2017-02-02T04:24:42.523Z,0
2017-02-02T04:25:42.568Z,0
2017-02-02T04:26:42.620Z,0
2017-02-02T04:27:42.664Z,0
2017-02-02T04:28:42.710Z,0
2017-02-02T04:29:42.784Z,0
2017-02-02T04:30:42.842Z,0
2017-02-02T04:31:42.894Z,0
2017-02-02T04:32:42.949Z,0
2017-02-02T04:33:42.995Z,0
2017-02-02T04:34:43.051Z,0
2017-02-02T04:35:43.103Z,0
2017-02-02T04:36:43.181Z,0
2017-02-02T04:37:43.229Z,0
2017-02-02T04:38:43.267Z,0
2017-02-02T04:39:43.324Z,0
2017-02-02T04:40:43.390Z,0
2017-02-02T04:41:43.437Z,0
2017-02-02T04:42:43.491Z,0
2017-02-02T04:43:43.543Z,0
2017-02-02T04:44:43.612Z,0
2017-02-02T04:45:43.645Z,0
2017-02-02T04:46:43.730Z,0
2017-02-02T04:47:43.774Z,0
2017-02-02T04:48:43.831Z,0
2017-02-02T04:49:43.873Z,0
2017-02-02T04:50:43.975Z,0
2017-02-02T04:51:43.997Z,0
2017-02-02T04:52:44.043Z,0
2017-02-02T04:53:44.115Z,0
2017-02-02T04:54:44.160Z,0
2017-02-02T04:55:44.205Z,0
2017-02-02T04:56:44.255Z,0
2017-02-02T04:57:44.326Z,0
2017-02-02T04:58:44.381Z,0
2017-02-02T04:59:44.414Z,0
2017-02-02T05:00:44.473Z,0
2017-02-02T05:01:44.538Z,0
2017-02-02T05:02:44.603Z,0
2017-02-02T05:03:44.649Z,0
2017-02-02T05:04:44.714Z,0
2017-02-02T05:05:44.744Z,0
2017-02-02T05:06:44.811Z,0
2017-02-02T05:07:44.875Z,0
2017-02-02T05:08:44.922Z,0
2017-02-02T05:09:44.975Z,0
2017-02-02T05:10:45.023Z,0
2017-02-02T05:11:45.104Z,0
2017-02-02T05:12:45.163Z,0
2017-02-02T05:13:45.210Z,0
2017-02-02T05:14:45.250Z,0
2017-02-02T05:15:45.328Z,0
2017-02-02T05:16:45.363Z,0
2017-02-02T05:17:45.421Z,0
2017-02-02T05:18:45.484Z,0
2017-02-02T05:19:45.546Z,0
2017-02-02T05:20:45.591Z,0
2017-02-02T05:21:45.646Z,0
2017-02-02T05:22:45.715Z,0
2017-02-02T05:23:45.767Z,0
2017-02-02T05:24:45.803Z,0
2017-02-02T05:25:45.866Z,0
2017-02-02T05:26:45.919Z,0
2017-02-02T05:27:45.967Z,0
2017-02-02T05:28:46.048Z,0
2017-02-02T05:29:46.079Z,0
2017-02-02T05:30:46.142Z,0
2017-02-02T05:31:46.201Z,0
2017-02-02T05:32:46.245Z,0
2017-02-02T05:33:46.316Z,0
2017-02-02T05:34:45.966Z,0
2017-02-02T05:35:46.031Z,0
2017-02-02T05:36:46.466Z,0
2017-02-02T05:37:46.528Z,0
2017-02-02T05:38:46.577Z,0
2017-02-02T05:39:46.626Z,0
2017-02-02T05:40:46.683Z,0
2017-02-02T05:41:46.747Z,0
2017-02-02T05:42:46.794Z,0
2017-02-02T05:43:46.850Z,0
2017-02-02T05:44:46.914Z,0
2017-02-02T05:45:46.968Z,0
2017-02-02T05:46:47.003Z,0
2017-02-02T05:47:47.056Z,0
2017-02-02T05:48:47.132Z,0
2017-02-02T05:49:47.196Z,0
2017-02-02T05:50:47.232Z,0
2017-02-02T05:51:47.271Z,0
2017-02-02T05:52:47.348Z,0
2017-02-02T05:53:47.405Z,0
2017-02-02T05:54:47.459Z,0
2017-02-02T05:55:47.508Z,0
2017-02-02T05:56:47.562Z,0
2017-02-02T05:57:47.613Z,0
2017-02-02T05:58:47.676Z,0
2017-02-02T05:59:47.741Z,0
2017-02-02T06:00:47.783Z,0
2017-02-02T06:01:47.456Z,0
2017-02-02T06:02:47.506Z,0
2017-02-02T06:03:47.936Z,0
2017-02-02T06:04:48.014Z,0
2017-02-02T06:05:48.055Z,0
2017-02-02T06:06:48.119Z,0
2017-02-02T06:07:48.187Z,0
2017-02-02T06:08:48.232Z,0
2017-02-02T06:09:48.297Z,0
2017-02-02T06:10:48.343Z,0
2017-02-02T06:11:48.385Z,0
2017-02-02T06:12:48.467Z,0
2017-02-02T06:13:48.544Z,0
2017-02-02T06:14:48.580Z,0
2017-02-02T06:15:48.614Z,0
2017-02-02T06:16:48.665Z,0
2017-02-02T06:17:48.706Z,0
2017-02-02T06:18:48.780Z,0
2017-02-02T06:19:48.846Z,0
2017-02-02T06:20:48.884Z,0
2017-02-02T06:21:48.958Z,0
2017-02-02T06:22:49.004Z,0
2017-02-02T06:23:49.032Z,0
2017-02-02T06:24:49.099Z,0
2017-02-02T06:25:49.158Z,0
2017-02-02T06:26:49.212Z,0
2017-02-02T06:27:49.277Z,0
2017-02-02T06:28:49.329Z,0
2017-02-02T06:29:49.385Z,0
2017-02-02T06:30:49.430Z,0
2017-02-02T06:31:49.485Z,0
2017-02-02T06:32:49.547Z,0
2017-02-02T06:33:49.605Z,0
2017-02-02T06:34:49.652Z,0
2017-02-02T06:35:49.725Z,0
2017-02-02T06:36:49.762Z,0
2017-02-02T06:37:49.832Z,0
2017-02-02T06:38:49.882Z,0
2017-02-02T06:39:49.924Z,0
2017-02-02T06:40:49.980Z,0
2017-02-02T06:41:50.053Z,0
2017-02-02T06:42:50.099Z,0
2017-02-02T06:43:50.153Z,0
2017-02-02T06:44:50.207Z,0
2017-02-02T06:45:50.246Z,0
2017-02-02T06:46:50.307Z,0
2017-02-02T06:47:50.373Z,0
2017-02-02T06:48:50.423Z,0
2017-02-02T06:49:50.476Z,0
2017-02-02T06:50:50.529Z,0
2017-02-02T06:51:50.600Z,0
2017-02-02T06:52:50.648Z,0
2017-02-02T06:53:50.698Z,0
2017-02-02T06:54:50.755Z,0
2017-02-02T06:55:50.810Z,0
2017-02-02T06:56:50.854Z,0
2017-02-02T06:57:50.923Z,0
2017-02-02T06:58:50.985Z,0
2017-02-02T06:59:51.022Z,0
2017-02-02T07:00:51.065Z,0
2017-02-02T07:01:51.133Z,0
2017-02-02T07:02:51.204Z,0
2017-02-02T07:03:51.241Z,0
2017-02-02T07:04:51.318Z,0
2017-02-02T07:05:51.363Z,0
2017-02-02T07:06:51.440Z,0
2017-02-02T07:07:51.461Z,0
2017-02-02T07:08:51.549Z,0
2017-02-02T07:09:51.588Z,0
2017-02-02T07:10:51.628Z,0
2017-02-02T07:11:51.686Z,0
2017-02-02T07:12:51.747Z,0
2017-02-02T07:13:51.790Z,0
2017-02-02T07:14:51.853Z,0
2017-02-02T07:15:51.911Z,0
2017-02-02T07:16:51.967Z,0
2017-02-02T07:17:52.012Z,0
2017-02-02T07:18:52.073Z,0
2017-02-02T07:19:52.113Z,0
2017-02-02T07:20:52.183Z,0
2017-02-02T07:21:52.243Z,0
2017-02-02T07:22:52.285Z,0
2017-02-02T07:23:52.332Z,0
2017-02-02T07:24:52.415Z,0
2017-02-02T07:25:52.450Z,0
2017-02-02T07:26:52.559Z,0
2017-02-02T07:27:52.554Z,5
2017-02-02T07:28:52.626Z,5
2017-02-02T07:29:52.696Z,5
2017-02-02T07:30:52.747Z,5
2017-02-02T07:31:52.784Z,5
2017-02-02T07:32:52.825Z,5
2017-02-02T07:33:52.897Z,5
2017-02-02T07:34:52.972Z,5
2017-02-02T07:35:53.024Z,5
2017-02-02T07:36:52.685Z,5
2017-02-02T07:37:53.127Z,5
2017-02-02T07:38:53.172Z,5
2017-02-02T07:39:53.241Z,5
2017-02-02T07:40:52.908Z,5
2017-02-02T07:41:53.346Z,5
2017-02-02T07:42:53.403Z,5
2017-02-02T07:43:53.464Z,5
2017-02-02T07:44:53.516Z,5
2017-02-02T07:45:53.192Z,10
2017-02-02T07:46:53.627Z,10
2017-02-02T07:47:53.682Z,10
2017-02-02T07:48:53.736Z,10
2017-02-02T07:49:53.782Z,10
2017-02-02T07:50:53.830Z,10
2017-02-02T07:51:53.893Z,10
2017-02-02T07:52:53.948Z,10
2017-02-02T07:53:54.024Z,10
2017-02-02T07:54:54.066Z,10
2017-02-02T07:55:54.128Z,15
2017-02-02T07:56:54.194Z,10
2017-02-02T07:57:54.225Z,15
2017-02-02T07:58:54.284Z,10
2017-02-02T07:59:54.361Z,10
2017-02-02T08:00:54.408Z,10
2017-02-02T08:01:54.451Z,10
2017-02-02T08:02:54.503Z,10
2017-02-02T08:03:54.561Z,10
2017-02-02T08:04:54.623Z,10
2017-02-02T08:05:54.675Z,10
2017-02-02T08:06:54.739Z,10
2017-02-02T08:07:54.791Z,10
2017-02-02T08:08:54.843Z,15
2017-02-02T08:09:54.898Z,15
2017-02-02T08:10:54.939Z,10
2017-02-02T08:11:55.006Z,10
2017-02-02T08:12:55.080Z,10
2017-02-02T08:13:55.136Z,10
2017-02-02T08:14:55.194Z,10
2017-02-02T08:15:55.253Z,10
2017-02-02T08:16:55.309Z,10
2017-02-02T08:17:55.381Z,10
2017-02-02T08:18:55.422Z,10
2017-02-02T08:19:55.461Z,10
2017-02-02T08:20:55.516Z,10
2017-02-02T08:21:55.576Z,10
2017-02-02T08:22:55.634Z,10
2017-02-02T08:23:55.684Z,10
2017-02-02T08:24:55.736Z,10
2017-02-02T08:25:55.786Z,10
2017-02-02T08:26:55.853Z,15
2017-02-02T08:27:55.895Z,15
2017-02-02T08:28:55.959Z,15
2017-02-02T08:29:56.023Z,15
2017-02-02T08:30:56.060Z,15
2017-02-02T08:31:55.744Z,15
2017-02-02T08:32:56.175Z,15
2017-02-02T08:33:56.240Z,15
2017-02-02T08:34:56.304Z,15
2017-02-02T08:35:56.358Z,15
2017-02-02T08:36:56.405Z,15
2017-02-02T08:37:56.453Z,15
2017-02-02T08:38:56.505Z,20
2017-02-02T08:39:56.566Z,20
2017-02-02T08:40:56.633Z,20
2017-02-02T08:41:56.678Z,20
2017-02-02T08:42:56.747Z,20
2017-02-02T08:43:56.795Z,15
2017-02-02T08:44:56.457Z,20
2017-02-02T08:45:56.516Z,20
2017-02-02T08:46:56.568Z,20
2017-02-02T08:47:56.628Z,20
2017-02-02T08:48:57.085Z,25
2017-02-02T08:49:57.141Z,20
2017-02-02T08:50:57.176Z,35
2017-02-02T08:51:57.235Z,25
2017-02-02T08:52:56.902Z,30
2017-02-02T08:53:56.977Z,20
2017-02-02T08:54:57.397Z,25
2017-02-02T08:55:57.475Z,30
2017-02-02T08:56:57.510Z,30
2017-02-02T08:57:57.577Z,25
2017-02-02T08:58:57.635Z,35
2017-02-02T08:59:57.674Z,30
2017-02-02T09:00:57.726Z,25
2017-02-02T09:01:57.798Z,35
2017-02-02T09:02:57.836Z,35
2017-02-02T09:03:57.901Z,35
2017-02-02T09:04:57.967Z,35
2017-02-02T09:05:58.006Z,35
2017-02-02T09:06:58.056Z,35
2017-02-02T09:07:58.143Z,35
2017-02-02T09:08:58.189Z,35
2017-02-02T09:09:58.232Z,35
2017-02-02T09:10:58.288Z,35
2017-02-02T09:11:58.348Z,35
2017-02-02T09:12:58.407Z,35
2017-02-02T09:13:58.468Z,40
2017-02-02T09:14:58.513Z,40
2017-02-02T09:15:58.204Z,35
2017-02-02T09:16:58.627Z,40
2017-02-02T09:17:58.683Z,40
2017-02-02T09:18:58.729Z,40
2017-02-02T09:19:58.784Z,40
2017-02-02T09:20:58.856Z,40
2017-02-02T09:21:58.908Z,40
2017-02-02T09:22:58.957Z,40
2017-02-02T09:23:59.016Z,40
2017-02-02T09:24:59.082Z,40
2017-02-02T09:25:59.127Z,40
2017-02-02T09:26:59.192Z,40
2017-02-02T09:27:59.242Z,40
2017-02-02T09:28:59.309Z,40
2017-02-02T09:29:59.388Z,40
2017-02-02T09:30:59.409Z,40
2017-02-02T09:31:59.479Z,40
2017-02-02T09:32:59.521Z,40
2017-02-02T09:33:59.579Z,40
2017-02-02T09:34:59.643Z,40
2017-02-02T09:35:59.689Z,40
2017-02-02T09:36:59.745Z,40
2017-02-02T09:37:59.816Z,40
2017-02-02T09:38:59.871Z,40
2017-02-02T09:39:59.927Z,40
2017-02-02T09:40:59.978Z,40
2017-02-02T09:41:59.646Z,45
2017-02-02T09:43:00.072Z,45
2017-02-02T09:44:00.162Z,45
2017-02-02T09:45:00.181Z,45
2017-02-02T09:46:00.261Z,45
2017-02-02T09:46:59.914Z,45
2017-02-02T09:48:00.374Z,45
2017-02-02T09:49:00.418Z,45
2017-02-02T09:50:00.470Z,45
2017-02-02T09:51:00.532Z,45
2017-02-02T09:52:00.600Z,45
2017-02-02T09:53:00.645Z,50
2017-02-02T09:54:00.702Z,50
2017-02-02T09:55:00.769Z,50
2017-02-02T09:56:00.823Z,55
2017-02-02T09:57:00.864Z,60
2017-02-02T09:58:00.926Z,60
2017-02-02T09:59:00.993Z,70
2017-02-02T10:00:01.039Z,90
2017-02-02T10:01:01.126Z,120
2017-02-02T10:02:01.158Z,180
2017-02-02T10:03:01.228Z,275
2017-02-02T10:04:01.273Z,340
2017-02-02T10:05:01.337Z,350
2017-02-02T10:06:01.376Z,365
2017-02-02T10:07:01.451Z,410
2017-02-02T10:08:01.494Z,430
2017-02-02T10:09:01.548Z,450
2017-02-02T10:10:01.609Z,480
2017-02-02T10:11:01.663Z,470
2017-02-02T10:12:01.727Z,450
2017-02-02T10:13:01.782Z,400
2017-02-02T10:14:01.854Z,405
2017-02-02T10:15:01.897Z,445
2017-02-02T10:16:01.953Z,425
2017-02-02T10:17:01.991Z,465
2017-02-02T10:18:02.057Z,500
2017-02-02T10:19:02.132Z,570
2017-02-02T10:20:02.193Z,580
2017-02-02T10:21:02.235Z,430
2017-02-02T10:22:02.279Z,315
2017-02-02T10:23:02.353Z,290
2017-02-02T10:24:02.416Z,280
2017-02-02T10:25:02.446Z,295
2017-02-02T10:26:02.521Z,325
2017-02-02T10:27:02.562Z,520
2017-02-02T10:28:02.641Z,545
2017-02-02T10:29:02.685Z,550
2017-02-02T10:30:02.353Z,560
2017-02-02T10:31:02.413Z,545
2017-02-02T10:32:02.475Z,480
2017-02-02T10:33:02.911Z,390
2017-02-02T10:34:02.563Z,360
2017-02-02T10:35:03.024Z,350
2017-02-02T10:36:02.675Z,250
2017-02-02T10:37:03.135Z,480
2017-02-02T10:38:03.176Z,375
2017-02-02T10:39:03.283Z,345
2017-02-02T10:40:02.914Z,335
2017-02-02T10:41:03.365Z,355
2017-02-02T10:42:03.424Z,535
2017-02-02T10:43:03.470Z,680
2017-02-02T10:44:03.525Z,645
2017-02-02T10:45:03.586Z,520
2017-02-02T10:46:03.651Z,495
2017-02-02T10:47:03.707Z,530
2017-02-02T10:48:03.767Z,145
2017-02-02T10:49:03.808Z,620
2017-02-02T10:50:03.494Z,645
2017-02-02T10:51:03.923Z,555
2017-02-02T10:52:03.989Z,350
2017-02-02T10:53:03.641Z,130
2017-02-02T10:54:04.107Z,105
2017-02-02T10:55:04.156Z,95
2017-02-02T10:56:04.210Z,20
2017-02-02T10:57:04.277Z,95
2017-02-02T10:58:04.326Z,105
2017-02-02T10:59:04.380Z,180
2017-02-02T11:00:04.441Z,415
2017-02-02T11:01:04.502Z,590
2017-02-02T11:02:04.540Z,665
2017-02-02T11:03:04.608Z,735
2017-02-02T11:04:04.680Z,665
2017-02-02T11:05:04.728Z,640
2017-02-02T11:06:04.787Z,680
2017-02-02T11:07:04.825Z,660
2017-02-02T11:08:04.891Z,720
2017-02-02T11:09:04.961Z,800
2017-02-02T11:10:05.015Z,560
2017-02-02T11:11:05.074Z,365
2017-02-02T11:12:05.119Z,355
2017-02-02T11:13:05.186Z,340
2017-02-02T11:14:05.218Z,345
2017-02-02T11:15:05.277Z,340
2017-02-02T11:16:05.342Z,315
2017-02-02T11:17:05.407Z,345
2017-02-02T11:18:05.463Z,400
2017-02-02T11:19:05.503Z,470
2017-02-02T11:20:05.568Z,690
2017-02-02T11:21:05.729Z,880
2017-02-02T11:22:05.691Z,860
2017-02-02T11:23:05.737Z,720
2017-02-02T11:24:05.805Z,110
2017-02-02T11:25:05.473Z,435
2017-02-02T11:26:05.910Z,510
2017-02-02T11:27:05.965Z,820
2017-02-02T11:28:06.032Z,980
2017-02-02T11:29:06.080Z,705
2017-02-02T11:30:06.135Z,165
2017-02-02T11:31:06.180Z,385
2017-02-02T11:32:06.260Z,400
2017-02-02T11:33:06.304Z,425
2017-02-02T11:34:06.373Z,785
2017-02-02T11:35:06.434Z,925
2017-02-02T11:36:06.467Z,830
2017-02-02T11:37:06.555Z,675
2017-02-02T11:38:06.600Z,845
2017-02-02T11:39:06.638Z,800
2017-02-02T11:40:06.716Z,655
2017-02-02T11:41:06.780Z,880
2017-02-02T11:42:06.817Z,895
2017-02-02T11:43:06.891Z,615
2017-02-02T11:44:06.939Z,455
2017-02-02T11:45:07.021Z,475
2017-02-02T11:46:07.055Z,470
2017-02-02T11:47:07.107Z,515
2017-02-02T11:48:07.148Z,660
2017-02-02T11:49:07.210Z,925
2017-02-02T11:50:07.267Z,325
2017-02-02T11:51:07.326Z,645
2017-02-02T11:52:07.395Z,300
2017-02-02T11:53:07.427Z,115
2017-02-02T11:54:07.511Z,75
2017-02-02T11:55:07.573Z,65
2017-02-02T11:56:07.608Z,60
2017-02-02T11:57:07.659Z,55
2017-02-02T11:58:07.735Z,55
2017-02-02T11:59:07.777Z,55
2017-02-02T12:00:07.847Z,55
2017-02-02T12:01:07.900Z,55
2017-02-02T12:02:07.962Z,50
2017-02-02T12:03:08.040Z,50
2017-02-02T12:04:08.063Z,50
2017-02-02T12:05:08.117Z,60
2017-02-02T12:06:08.172Z,40
2017-02-02T12:07:08.230Z,55
2017-02-02T12:08:07.905Z,60
2017-02-02T12:09:07.999Z,50
2017-02-02T12:10:08.415Z,55
2017-02-02T12:11:08.462Z,45
2017-02-02T12:12:08.529Z,55
2017-02-02T12:13:08.560Z,50
2017-02-02T12:14:08.625Z,50
2017-02-02T12:15:08.310Z,60
2017-02-02T12:16:08.744Z,55
2017-02-02T12:17:08.801Z,55
2017-02-02T12:18:08.895Z,50
2017-02-02T12:19:08.904Z,50
2017-02-02T12:20:08.612Z,30
2017-02-02T12:21:09.031Z,55
2017-02-02T12:22:09.096Z,50
2017-02-02T12:23:09.132Z,40
2017-02-02T12:24:09.215Z,55
2017-02-02T12:25:09.261Z,55
2017-02-02T12:26:09.315Z,60
2017-02-02T12:27:09.362Z,50
2017-02-02T12:28:09.439Z,50
2017-02-02T12:29:09.504Z,50
2017-02-02T12:30:09.554Z,50
2017-02-02T12:31:09.228Z,45
2017-02-02T12:32:09.267Z,45
2017-02-02T12:33:09.712Z,60
2017-02-02T12:34:09.780Z,25
2017-02-02T12:35:09.833Z,20
2017-02-02T12:36:09.878Z,50
2017-02-02T12:37:09.575Z,55
2017-02-02T12:38:09.225Z,25
2017-02-02T12:39:10.056Z,35
2017-02-02T12:40:09.728Z,35
2017-02-02T12:41:09.778Z,20
2017-02-02T12:42:09.461Z,20
2017-02-02T12:43:10.290Z,40
2017-02-02T12:44:09.947Z,40
2017-02-02T12:45:10.394Z,45
2017-02-02T12:46:10.074Z,50
2017-02-02T12:47:10.516Z,50
2017-02-02T12:48:10.578Z,55
2017-02-02T12:49:10.255Z,50
2017-02-02T12:50:09.926Z,55
2017-02-02T12:51:10.366Z,30
2017-02-02T12:52:10.803Z,25
2017-02-02T12:53:10.468Z,50
2017-02-02T12:54:10.527Z,50
2017-02-02T12:55:10.601Z,45
2017-02-02T12:56:11.036Z,50
2017-02-02T12:57:10.691Z,50
2017-02-02T12:58:10.738Z,45
2017-02-02T12:59:11.227Z,45
2017-02-02T13:00:11.252Z,45
2017-02-02T13:01:10.917Z,45
2017-02-02T13:02:11.383Z,50
2017-02-02T13:03:11.035Z,45
2017-02-02T13:04:10.712Z,45
2017-02-02T13:05:11.531Z,45
2017-02-02T13:06:11.591Z,45
2017-02-02T13:07:11.651Z,45
2017-02-02T13:08:11.684Z,45
2017-02-02T13:09:11.367Z,40
2017-02-02T13:10:10.652Z,40
2017-02-02T13:11:11.863Z,30
2017-02-02T13:12:11.934Z,30
2017-02-02T13:13:11.987Z,30
2017-02-02T13:14:11.663Z,30
2017-02-02T13:15:12.109Z,25
2017-02-02T13:16:11.781Z,25
2017-02-02T13:17:12.215Z,30
2017-02-02T13:18:11.885Z,30
2017-02-02T13:19:12.318Z,30
2017-02-02T13:20:12.004Z,35
2017-02-02T13:21:12.449Z,30
2017-02-02T13:22:12.100Z,35
2017-02-02T13:23:12.561Z,35
2017-02-02T13:24:12.631Z,35
2017-02-02T13:25:12.675Z,35
2017-02-02T13:26:12.729Z,35
2017-02-02T13:27:12.786Z,35
2017-02-02T13:28:12.071Z,35
2017-02-02T13:29:12.117Z,35
2017-02-02T13:30:12.561Z,35
2017-02-02T13:31:13.012Z,30
2017-02-02T13:32:12.682Z,30
2017-02-02T13:33:12.745Z,25
2017-02-02T13:34:12.401Z,25
2017-02-02T13:35:13.228Z,30
2017-02-02T13:36:13.295Z,30
2017-02-02T13:37:12.970Z,30
2017-02-02T13:38:13.434Z,25
2017-02-02T13:39:13.071Z,25
2017-02-02T13:40:13.557Z,25
2017-02-02T13:41:13.587Z,25
2017-02-02T13:42:13.252Z,25
2017-02-02T13:43:13.311Z,25
2017-02-02T13:44:13.365Z,25
2017-02-02T13:45:13.795Z,25
2017-02-02T13:46:13.516Z,25
2017-02-02T13:47:13.910Z,20
2017-02-02T13:48:13.966Z,25
2017-02-02T13:49:14.014Z,25
2017-02-02T13:50:13.309Z,25
2017-02-02T13:51:14.123Z,25
2017-02-02T13:52:14.197Z,25
2017-02-02T13:53:14.251Z,20
2017-02-02T13:54:14.322Z,20
2017-02-02T13:55:14.376Z,20
2017-02-02T13:56:14.433Z,20
2017-02-02T13:57:14.489Z,20
2017-02-02T13:58:14.547Z,20
2017-02-02T13:59:14.615Z,20
2017-02-02T14:00:14.277Z,20
2017-02-02T14:01:14.317Z,20
2017-02-02T14:02:14.771Z,20
2017-02-02T14:03:14.827Z,20
2017-02-02T14:04:14.891Z,15
2017-02-02T14:05:14.922Z,15
2017-02-02T14:06:15.000Z,15
2017-02-02T14:07:14.660Z,15
2017-02-02T14:08:15.101Z,15
2017-02-02T14:09:15.196Z,15
2017-02-02T14:10:15.215Z,15
2017-02-02T14:11:14.883Z,15
2017-02-02T14:12:15.328Z,15
2017-02-02T14:13:15.393Z,15
2017-02-02T14:14:15.488Z,15
2017-02-02T14:15:15.495Z,15
2017-02-02T14:16:14.780Z,15
2017-02-02T14:17:15.241Z,15
2017-02-02T14:18:15.667Z,15
2017-02-02T14:19:15.744Z,15
2017-02-02T14:20:15.798Z,15
2017-02-02T14:21:15.836Z,15
2017-02-02T14:22:15.514Z,15
2017-02-02T14:23:15.936Z,15
2017-02-02T14:24:15.625Z,15
2017-02-02T14:25:16.059Z,15
2017-02-02T14:26:16.134Z,10
2017-02-02T14:27:16.185Z,10
2017-02-02T14:28:16.233Z,10
2017-02-02T14:29:15.901Z,10